sensor_id;sensor_type;location;lat;lon;timestamp;pressure;altitude;pressure_sealevel;temperature;humidity
44839;BME280;30576;42.098;24.876;2023-03-31T00:02:19;99856.13;;;10.07;51.03
44839;BME280;30576;42.098;24.876;2023-03-31T00:04:46;99856.28;;;9.90;51.14
44839;BME280;30576;42.098;24.876;2023-03-31T00:07:17;99853.59;;;9.98;50.87
44839;BME280;30576;42.098;24.876;2023-03-31T00:09:46;99854.44;;;9.98;50.20
44839;BME280;30576;42.098;24.876;2023-03-31T00:12:12;99847.44;;;9.94;51.11
44839;BME280;30576;42.098;24.876;2023-03-31T00:14:38;99850.91;;;10.01;51.35
44839;BME280;30576;42.098;24.876;2023-03-31T00:17:03;99858.78;;;10.04;50.79
44839;BME280;30576;42.098;24.876;2023-03-31T00:19:29;99854.47;;;9.95;50.43
44839;BME280;30576;42.098;24.876;2023-03-31T00:21:57;99847.44;;;9.96;49.46
44839;BME280;30576;42.098;24.876;2023-03-31T00:24:29;99849.19;;;9.95;48.99
44839;BME280;30576;42.098;24.876;2023-03-31T00:26:59;99846.56;;;9.97;49.12
44839;BME280;30576;42.098;24.876;2023-03-31T00:29:25;99839.53;;;9.96;49.60
44839;BME280;30576;42.098;24.876;2023-03-31T00:31:51;99835.94;;;10.03;50.17
44839;BME280;30576;42.098;24.876;2023-03-31T00:34:16;99832.38;;;10.09;50.25
44839;BME280;30576;42.098;24.876;2023-03-31T00:36:42;99832.38;;;10.09;50.81
44839;BME280;30576;42.098;24.876;2023-03-31T00:39:15;99830.63;;;10.06;50.02
44839;BME280;30576;42.098;24.876;2023-03-31T00:41:42;99832.44;;;10.04;49.63
44839;BME280;30576;42.098;24.876;2023-03-31T00:46:33;99829.94;;;9.92;50.96
44839;BME280;30576;42.098;24.876;2023-03-31T00:49:01;99825.47;;;9.97;51.17
44839;BME280;30576;42.098;24.876;2023-03-31T00:51:27;99828.19;;;9.89;51.82
44839;BME280;30576;42.098;24.876;2023-03-31T00:53:55;99814.84;;;10.06;51.22
44839;BME280;30576;42.098;24.876;2023-03-31T00:56:25;99814.25;;;9.78;52.19
44839;BME280;30576;42.098;24.876;2023-03-31T00:58:50;99827.53;;;9.67;52.41
44839;BME280;30576;42.098;24.876;2023-03-31T01:01:19;99820.59;;;9.55;53.28
44839;BME280;30576;42.098;24.876;2023-03-31T01:03:49;99817.06;;;9.59;53.02
44839;BME280;30576;42.098;24.876;2023-03-31T01:06:16;99812.84;;;9.40;54.22
44839;BME280;30576;42.098;24.876;2023-03-31T01:08:44;99816.44;;;9.25;54.97
44839;BME280;30576;42.098;24.876;2023-03-31T01:11:12;99821.66;;;9.32;54.65
44839;BME280;30576;42.098;24.876;2023-03-31T01:13:40;99815.53;;;9.32;55.31
44839;BME280;30576;42.098;24.876;2023-03-31T01:16:06;99812.00;;;9.33;54.79
44839;BME280;30576;42.098;24.876;2023-03-31T01:18:31;99822.63;;;9.21;55.48
44839;BME280;30576;42.098;24.876;2023-03-31T01:34:16;99813.03;;;9.13;56.91
44839;BME280;30576;42.098;24.876;2023-03-31T01:42:19;99816.78;;;8.75;58.25
44839;BME280;30576;42.098;24.876;2023-03-31T01:47:38;99816.88;;;8.54;58.14
44839;BME280;30576;42.098;24.876;2023-03-31T01:50:05;99814.22;;;8.62;57.57
44839;BME280;30576;42.098;24.876;2023-03-31T01:55:21;99796.84;;;8.23;56.07
44839;BME280;30576;42.098;24.876;2023-03-31T01:57:53;99788.09;;;8.17;56.21
44839;BME280;30576;42.098;24.876;2023-03-31T02:00:24;99788.06;;;8.23;56.32
44839;BME280;30576;42.098;24.876;2023-03-31T02:03:02;99793.31;;;8.28;56.65
44839;BME280;30576;42.098;24.876;2023-03-31T02:05:36;99795.06;;;8.32;56.14
44839;BME280;30576;42.098;24.876;2023-03-31T02:10:34;99790.75;;;8.09;55.92
44839;BME280;30576;42.098;24.876;2023-03-31T02:13:00;99761.00;;;7.98;56.19
44839;BME280;30576;42.098;24.876;2023-03-31T02:15:31;99789.84;;;8.19;54.24
44839;BME280;30576;42.098;24.876;2023-03-31T02:17:59;99782.91;;;7.97;55.03
44839;BME280;30576;42.098;24.876;2023-03-31T02:20:29;99783.75;;;8.06;55.57
44839;BME280;30576;42.098;24.876;2023-03-31T02:22:56;99789.00;;;8.11;55.06
44839;BME280;30576;42.098;24.876;2023-03-31T02:25:23;99776.75;;;8.09;54.56
44839;BME280;30576;42.098;24.876;2023-03-31T02:28:13;99765.41;;;8.00;54.97
44839;BME280;30576;42.098;24.876;2023-03-31T02:30:44;99768.94;;;7.82;55.39
44839;BME280;30576;42.098;24.876;2023-03-31T02:35:54;99766.28;;;7.90;55.45
44839;BME280;30576;42.098;24.876;2023-03-31T02:38:20;99765.44;;;7.86;55.08
44839;BME280;30576;42.098;24.876;2023-03-31T02:40:45;99759.31;;;7.72;55.67
44839;BME280;30576;42.098;24.876;2023-03-31T02:43:11;99764.59;;;7.64;55.16
44839;BME280;30576;42.098;24.876;2023-03-31T02:48:05;99765.50;;;7.66;55.79
44839;BME280;30576;42.098;24.876;2023-03-31T02:50:40;99771.59;;;7.75;55.86
44839;BME280;30576;42.098;24.876;2023-03-31T02:53:20;99773.38;;;7.57;56.54
44839;BME280;30576;42.098;24.876;2023-03-31T02:58:50;99778.63;;;7.56;56.52
44839;BME280;30576;42.098;24.876;2023-03-31T03:07:08;99778.66;;;7.48;57.13
44839;BME280;30576;42.098;24.876;2023-03-31T03:12:26;99775.09;;;7.55;56.88
44839;BME280;30576;42.098;24.876;2023-03-31T03:15:02;99785.59;;;7.66;56.55
44839;BME280;30576;42.098;24.876;2023-03-31T03:17:36;99782.09;;;7.75;56.90
44839;BME280;30576;42.098;24.876;2023-03-31T03:20:03;99795.22;;;7.81;57.27
44839;BME280;30576;42.098;24.876;2023-03-31T03:22:33;99797.81;;;7.87;57.73
44839;BME280;30576;42.098;24.876;2023-03-31T03:24:59;99804.78;;;8.05;57.45
44839;BME280;30576;42.098;24.876;2023-03-31T03:27:26;99791.69;;;7.93;57.29
44839;BME280;30576;42.098;24.876;2023-03-31T03:29:54;99796.94;;;7.94;57.95
44839;BME280;30576;42.098;24.876;2023-03-31T03:32:21;99803.06;;;7.87;57.65
44839;BME280;30576;42.098;24.876;2023-03-31T03:34:51;99806.56;;;7.91;57.62
44839;BME280;30576;42.098;24.876;2023-03-31T03:37:19;99803.06;;;7.85;57.92
44839;BME280;30576;42.098;24.876;2023-03-31T03:39:45;99801.34;;;7.74;56.80
44839;BME280;30576;42.098;24.876;2023-03-31T03:42:10;99804.84;;;7.74;56.75
44839;BME280;30576;42.098;24.876;2023-03-31T03:44:36;99799.63;;;7.62;56.91
44839;BME280;30576;42.098;24.876;2023-03-31T03:47:03;99800.47;;;7.78;56.67
44839;BME280;30576;42.098;24.876;2023-03-31T03:49:29;99811.88;;;7.37;57.18
44839;BME280;30576;42.098;24.876;2023-03-31T03:51:54;99808.38;;;7.11;57.26
44839;BME280;30576;42.098;24.876;2023-03-31T03:54:20;99809.22;;;6.98;57.13
44839;BME280;30576;42.098;24.876;2023-03-31T03:56:46;99805.75;;;7.04;57.12
44839;BME280;30576;42.098;24.876;2023-03-31T03:59:11;99811.00;;;7.14;56.51
44839;BME280;30576;42.098;24.876;2023-03-31T04:01:36;99804.00;;;7.27;56.20
44839;BME280;30576;42.098;24.876;2023-03-31T04:04:02;99814.50;;;7.30;56.24
44839;BME280;30576;42.098;24.876;2023-03-31T04:06:27;99801.38;;;7.53;55.12
44839;BME280;30576;42.098;24.876;2023-03-31T04:08:53;99804.91;;;7.40;56.06
44839;BME280;30576;42.098;24.876;2023-03-31T04:11:18;99804.88;;;7.62;55.71
44839;BME280;30576;42.098;24.876;2023-03-31T04:13:44;99810.13;;;7.69;56.12
44839;BME280;30576;42.098;24.876;2023-03-31T04:16:10;99795.25;;;7.58;55.70
44839;BME280;30576;42.098;24.876;2023-03-31T04:18:36;99804.84;;;7.76;54.65
44839;BME280;30576;42.098;24.876;2023-03-31T04:21:07;99801.34;;;7.67;54.78
44839;BME280;30576;42.098;24.876;2023-03-31T04:23:36;99796.09;;;7.75;54.85
44839;BME280;30576;42.098;24.876;2023-03-31T04:26:10;99789.06;;;7.96;54.24
44839;BME280;30576;42.098;24.876;2023-03-31T04:28:36;99779.41;;;7.99;55.03
44839;BME280;30576;42.098;24.876;2023-03-31T04:31:02;99774.13;;;8.02;55.98
44839;BME280;30576;42.098;24.876;2023-03-31T04:33:28;99775.91;;;8.00;56.85
44839;BME280;30576;42.098;24.876;2023-03-31T04:35:53;99779.38;;;8.04;56.72
44839;BME280;30576;42.098;24.876;2023-03-31T04:38:19;99773.31;;;7.93;57.26
44839;BME280;30576;42.098;24.876;2023-03-31T04:40:51;99776.78;;;7.93;57.55
44839;BME280;30576;42.098;24.876;2023-03-31T04:43:17;99772.41;;;7.87;58.21
44839;BME280;30576;42.098;24.876;2023-03-31T04:45:44;99776.78;;;8.01;57.86
44839;BME280;30576;42.098;24.876;2023-03-31T04:48:10;99785.47;;;8.17;57.70
44839;BME280;30576;42.098;24.876;2023-03-31T04:50:35;99782.81;;;8.21;57.74
44839;BME280;30576;42.098;24.876;2023-03-31T04:53:01;99782.78;;;8.29;58.83
44839;BME280;30576;42.098;24.876;2023-03-31T04:55:26;99778.44;;;8.27;58.95
44839;BME280;30576;42.098;24.876;2023-03-31T04:57:52;99791.56;;;8.28;58.46
44839;BME280;30576;42.098;24.876;2023-03-31T05:00:18;99785.38;;;8.37;59.01
44839;BME280;30576;42.098;24.876;2023-03-31T05:02:43;99790.59;;;8.52;58.53
44839;BME280;30576;42.098;24.876;2023-03-31T05:05:09;99780.84;;;8.74;59.06
44839;BME280;30576;42.098;24.876;2023-03-31T05:07:35;99765.72;;;9.06;58.38
44839;BME280;30576;42.098;24.876;2023-03-31T05:10:00;99759.53;;;9.14;57.72
44839;BME280;30576;42.098;24.876;2023-03-31T05:12:25;99758.66;;;9.09;57.79
44839;BME280;30576;42.098;24.876;2023-03-31T05:14:51;99753.22;;;9.29;57.85
44839;BME280;30576;42.098;24.876;2023-03-31T05:17:16;99753.13;;;9.40;56.79
44839;BME280;30576;42.098;24.876;2023-03-31T05:19:42;99747.16;;;9.21;57.15
44839;BME280;30576;42.098;24.876;2023-03-31T05:22:07;99743.66;;;9.22;57.04
44839;BME280;30576;42.098;24.876;2023-03-31T05:24:32;99734.00;;;9.21;56.07
44839;BME280;30576;42.098;24.876;2023-03-31T05:26:58;99722.66;;;9.16;56.18
44839;BME280;30576;42.098;24.876;2023-03-31T05:29:23;99723.56;;;9.13;57.06
44839;BME280;30576;42.098;24.876;2023-03-31T05:31:48;99711.25;;;9.16;56.91
44839;BME280;30576;42.098;24.876;2023-03-31T05:34:14;99724.72;;;8.74;57.91
44839;BME280;30576;42.098;24.876;2023-03-31T05:36:40;99724.50;;;9.03;57.77
44839;BME280;30576;42.098;24.876;2023-03-31T05:39:07;99724.38;;;9.19;56.72
44839;BME280;30576;42.098;24.876;2023-03-31T05:41:33;99719.97;;;9.22;57.10
44839;BME280;30576;42.098;24.876;2023-03-31T05:43:58;99718.22;;;9.23;55.83
44839;BME280;30576;42.098;24.876;2023-03-31T05:46:23;99729.50;;;9.32;56.25
44839;BME280;30576;42.098;24.876;2023-03-31T05:48:49;99725.16;;;9.30;55.48
44839;BME280;30576;42.098;24.876;2023-03-31T05:51:14;99715.41;;;9.40;55.13
44839;BME280;30576;42.098;24.876;2023-03-31T05:53:40;99703.00;;;9.51;53.61
44839;BME280;30576;42.098;24.876;2023-03-31T05:56:06;99699.53;;;9.49;54.49
44839;BME280;30576;42.098;24.876;2023-03-31T05:58:35;99709.13;;;9.56;53.63
44839;BME280;30576;42.098;24.876;2023-03-31T06:01:08;99712.59;;;9.58;52.83
44839;BME280;30576;42.098;24.876;2023-03-31T06:03:34;99718.94;;;9.36;54.30
44839;BME280;30576;42.098;24.876;2023-03-31T06:06:00;99700.59;;;9.29;54.72
44839;BME280;30576;42.098;24.876;2023-03-31T06:08:26;99703.03;;;9.46;55.10
44839;BME280;30576;42.098;24.876;2023-03-31T06:10:52;99685.44;;;9.55;54.32
44839;BME280;30576;42.098;24.876;2023-03-31T06:13:17;99702.88;;;9.62;54.24
44839;BME280;30576;42.098;24.876;2023-03-31T06:15:42;99698.50;;;9.64;55.00
44839;BME280;30576;42.098;24.876;2023-03-31T06:18:07;99700.22;;;9.65;54.35
44839;BME280;30576;42.098;24.876;2023-03-31T06:20:35;99702.78;;;9.71;53.29
44839;BME280;30576;42.098;24.876;2023-03-31T06:23:00;99707.09;;;9.78;53.13
44839;BME280;30576;42.098;24.876;2023-03-31T06:25:25;99704.41;;;9.83;53.01
44839;BME280;30576;42.098;24.876;2023-03-31T06:27:51;99709.81;;;9.72;51.65
44839;BME280;30576;42.098;24.876;2023-03-31T06:30:16;99706.53;;;9.50;52.07
44839;BME280;30576;42.098;24.876;2023-03-31T06:32:41;99701.00;;;9.75;51.76
44839;BME280;30576;42.098;24.876;2023-03-31T06:35:07;99705.28;;;9.82;51.51
44839;BME280;30576;42.098;24.876;2023-03-31T06:37:32;99686.84;;;9.82;51.84
44839;BME280;30576;42.098;24.876;2023-03-31T06:39:58;99698.13;;;9.95;51.32
44839;BME280;30576;42.098;24.876;2023-03-31T06:42:23;99696.34;;;9.97;48.73
44839;BME280;30576;42.098;24.876;2023-03-31T06:44:48;99695.34;;;10.07;48.26
44839;BME280;30576;42.098;24.876;2023-03-31T06:47:13;99691.72;;;10.13;47.50
44839;BME280;30576;42.098;24.876;2023-03-31T06:49:39;99687.16;;;10.27;47.01
44839;BME280;30576;42.098;24.876;2023-03-31T06:52:04;99683.63;;;10.28;47.73
44839;BME280;30576;42.098;24.876;2023-03-31T06:54:30;99679.75;;;9.90;47.51
44839;BME280;30576;42.098;24.876;2023-03-31T06:56:55;99674.50;;;9.89;47.57
44839;BME280;30576;42.098;24.876;2023-03-31T06:59:20;99674.72;;;10.40;46.92
44839;BME280;30576;42.098;24.876;2023-03-31T07:01:46;99666.81;;;10.38;47.58
44839;BME280;30576;42.098;24.876;2023-03-31T07:04:12;99665.72;;;10.53;46.24
44839;BME280;30576;42.098;24.876;2023-03-31T07:06:37;99669.38;;;10.45;45.94
44839;BME280;30576;42.098;24.876;2023-03-31T07:09:03;99675.69;;;10.33;46.80
44839;BME280;30576;42.098;24.876;2023-03-31T07:11:28;99667.75;;;10.33;47.53
44839;BME280;30576;42.098;24.876;2023-03-31T07:13:53;99664.59;;;10.68;47.16
44839;BME280;30576;42.098;24.876;2023-03-31T07:16:19;99668.47;;;11.02;46.26
44839;BME280;30576;42.098;24.876;2023-03-31T07:18:44;99656.72;;;11.17;43.86
44839;BME280;30576;42.098;24.876;2023-03-31T07:21:10;99665.66;;;11.11;43.47
44839;BME280;30576;42.098;24.876;2023-03-31T07:23:35;99661.88;;;10.73;45.54
44839;BME280;30576;42.098;24.876;2023-03-31T07:26:01;99668.81;;;10.80;46.10
44839;BME280;30576;42.098;24.876;2023-03-31T07:28:30;99666.44;;;11.16;45.99
44839;BME280;30576;42.098;24.876;2023-03-31T07:30:55;99667.50;;;11.54;46.47
44839;BME280;30576;42.098;24.876;2023-03-31T07:33:20;99665.31;;;11.75;46.09
44839;BME280;30576;42.098;24.876;2023-03-31T07:35:46;99660.75;;;12.27;43.37
44839;BME280;30576;42.098;24.876;2023-03-31T07:38:11;99658.59;;;12.80;44.10
44839;BME280;30576;42.098;24.876;2023-03-31T07:40:37;99648.78;;;13.20;42.81
44839;BME280;30576;42.098;24.876;2023-03-31T07:43:03;99654.09;;;13.18;42.39
44839;BME280;30576;42.098;24.876;2023-03-31T07:45:28;99657.41;;;13.26;42.00
44839;BME280;30576;42.098;24.876;2023-03-31T07:47:53;99648.06;;;13.48;42.13
44839;BME280;30576;42.098;24.876;2023-03-31T07:50:19;99652.88;;;14.26;41.41
44839;BME280;30576;42.098;24.876;2023-03-31T07:52:46;99652.13;;;14.21;41.07
44839;BME280;30576;42.098;24.876;2023-03-31T07:55:11;99663.09;;;13.78;41.41
44839;BME280;30576;42.098;24.876;2023-03-31T07:57:37;99661.53;;;14.31;40.90
44839;BME280;30576;42.098;24.876;2023-03-31T08:00:03;99658.63;;;14.10;40.45
44839;BME280;30576;42.098;24.876;2023-03-31T08:02:31;99655.25;;;14.35;39.41
44839;BME280;30576;42.098;24.876;2023-03-31T08:04:57;99644.91;;;13.96;41.18
44839;BME280;30576;42.098;24.876;2023-03-31T08:07:22;99643.41;;;13.87;40.60
44839;BME280;30576;42.098;24.876;2023-03-31T08:09:47;99637.47;;;14.37;38.79
44839;BME280;30576;42.098;24.876;2023-03-31T08:12:13;99632.44;;;14.56;38.32
44839;BME280;30576;42.098;24.876;2023-03-31T08:14:39;99624.75;;;15.02;37.82
44839;BME280;30576;42.098;24.876;2023-03-31T08:17:04;99621.66;;;14.62;38.17
44839;BME280;30576;42.098;24.876;2023-03-31T08:19:30;99612.75;;;15.17;38.96
44839;BME280;30576;42.098;24.876;2023-03-31T08:21:55;99600.06;;;15.98;37.11
44839;BME280;30576;42.098;24.876;2023-03-31T08:24:20;99590.03;;;16.04;36.39
44839;BME280;30576;42.098;24.876;2023-03-31T08:26:46;99587.25;;;16.29;37.07
44839;BME280;30576;42.098;24.876;2023-03-31T08:29:11;99580.34;;;16.47;35.92
44839;BME280;30576;42.098;24.876;2023-03-31T08:31:37;99577.22;;;16.58;37.03
44839;BME280;30576;42.098;24.876;2023-03-31T08:34:03;99570.72;;;16.43;36.54
44839;BME280;30576;42.098;24.876;2023-03-31T08:36:28;99560.94;;;16.66;38.94
44839;BME280;30576;42.098;24.876;2023-03-31T08:38:54;99554.16;;;16.79;40.72
44839;BME280;30576;42.098;24.876;2023-03-31T08:43:45;99544.91;;;17.48;36.34
44839;BME280;30576;42.098;24.876;2023-03-31T08:46:13;99545.59;;;17.14;35.69
44839;BME280;30576;42.098;24.876;2023-03-31T08:48:47;99541.31;;;17.10;35.93
44839;BME280;30576;42.098;24.876;2023-03-31T08:51:35;99533.19;;;16.72;37.51
44839;BME280;30576;42.098;24.876;2023-03-31T08:54:27;99532.94;;;16.98;37.34
44839;BME280;30576;42.098;24.876;2023-03-31T08:56:49;99525.75;;;17.40;37.44
44839;BME280;30576;42.098;24.876;2023-03-31T09:01:52;99520.00;;;17.49;36.82
44839;BME280;30576;42.098;24.876;2023-03-31T09:09:43;99484.28;;;17.33;36.86
44839;BME280;30576;42.098;24.876;2023-03-31T09:12:14;99477.03;;;17.36;37.28
44839;BME280;30576;42.098;24.876;2023-03-31T09:14:41;99479.88;;;17.13;36.94
44839;BME280;30576;42.098;24.876;2023-03-31T09:19:53;99471.72;;;17.36;36.98
44839;BME280;30576;42.098;24.876;2023-03-31T09:22:24;99464.56;;;17.75;37.36
44839;BME280;30576;42.098;24.876;2023-03-31T09:24:54;99456.94;;;18.04;37.97
44839;BME280;30576;42.098;24.876;2023-03-31T09:27:21;99449.22;;;18.17;38.38
44839;BME280;30576;42.098;24.876;2023-03-31T09:29:53;99455.34;;;18.36;35.64
44839;BME280;30576;42.098;24.876;2023-03-31T09:32:20;99452.59;;;18.55;35.58
44839;BME280;30576;42.098;24.876;2023-03-31T09:34:49;99440.16;;;18.19;36.37
44839;BME280;30576;42.098;24.876;2023-03-31T09:37:16;99449.13;;;18.18;36.97
44839;BME280;30576;42.098;24.876;2023-03-31T09:39:41;99433.50;;;18.11;35.63
44839;BME280;30576;42.098;24.876;2023-03-31T09:42:08;99433.31;;;17.96;36.78
44839;BME280;30576;42.098;24.876;2023-03-31T09:47:02;99415.13;;;18.39;37.24
44839;BME280;30576;42.098;24.876;2023-03-31T09:49:33;99407.31;;;18.70;35.86
44839;BME280;30576;42.098;24.876;2023-03-31T09:52:05;99405.84;;;18.47;35.00
44839;BME280;30576;42.098;24.876;2023-03-31T09:54:34;99413.16;;;18.60;35.64
44839;BME280;30576;42.098;24.876;2023-03-31T09:57:02;99410.28;;;18.48;36.66
44839;BME280;30576;42.098;24.876;2023-03-31T09:59:36;99396.56;;;18.71;35.57
44839;BME280;30576;42.098;24.876;2023-03-31T10:02:03;99393.50;;;19.12;35.45
44839;BME280;30576;42.098;24.876;2023-03-31T10:04:31;99392.13;;;19.37;34.32
44839;BME280;30576;42.098;24.876;2023-03-31T10:06:56;99375.91;;;19.40;35.45
44839;BME280;30576;42.098;24.876;2023-03-31T10:09:27;99375.81;;;19.10;34.57
44839;BME280;30576;42.098;24.876;2023-03-31T10:11:55;99377.97;;;19.03;35.47
44839;BME280;30576;42.098;24.876;2023-03-31T10:17:20;99370.03;;;19.33;35.31
44839;BME280;30576;42.098;24.876;2023-03-31T10:19:59;99366.75;;;19.60;35.22
44839;BME280;30576;42.098;24.876;2023-03-31T10:22:30;99361.38;;;19.44;35.11
44839;BME280;30576;42.098;24.876;2023-03-31T10:25:13;99350.88;;;19.57;34.44
44839;BME280;30576;42.098;24.876;2023-03-31T10:27:39;99357.44;;;19.98;34.51
44839;BME280;30576;42.098;24.876;2023-03-31T10:30:07;99353.75;;;19.84;34.22
44839;BME280;30576;42.098;24.876;2023-03-31T10:32:37;99348.41;;;20.15;35.29
44839;BME280;30576;42.098;24.876;2023-03-31T10:35:06;99341.28;;;20.44;33.53
44839;BME280;30576;42.098;24.876;2023-03-31T10:37:32;99328.69;;;20.89;35.22
44839;BME280;30576;42.098;24.876;2023-03-31T10:40:00;99331.56;;;20.86;32.73
44839;BME280;30576;42.098;24.876;2023-03-31T10:42:26;99326.13;;;20.73;33.50
44839;BME280;30576;42.098;24.876;2023-03-31T10:45:35;99322.97;;;21.08;33.83
44839;BME280;30576;42.098;24.876;2023-03-31T10:47:40;99322.81;;;21.39;34.39
44839;BME280;30576;42.098;24.876;2023-03-31T10:50:12;99313.16;;;21.51;32.90
44839;BME280;30576;42.098;24.876;2023-03-31T10:52:45;99309.34;;;21.68;33.98
44839;BME280;30576;42.098;24.876;2023-03-31T10:55:11;99306.34;;;21.72;32.31
44839;BME280;30576;42.098;24.876;2023-03-31T10:57:54;99255.19;;;21.06;31.65
44839;BME280;30576;42.098;24.876;2023-03-31T11:00:31;99295.53;;;21.59;32.48
44839;BME280;30576;42.098;24.876;2023-03-31T11:05:45;99274.31;;;21.42;31.54
44839;BME280;30576;42.098;24.876;2023-03-31T11:16:03;99258.13;;;21.71;30.52
44839;BME280;30576;42.098;24.876;2023-03-31T11:26:26;99233.47;;;22.43;32.10
44839;BME280;30576;42.098;24.876;2023-03-31T11:29:03;99234.53;;;22.53;29.83
44839;BME280;30576;42.098;24.876;2023-03-31T11:41:36;99201.88;;;23.07;29.62
44839;BME280;30576;42.098;24.876;2023-03-31T11:44:04;99210.72;;;22.73;29.68
44839;BME280;30576;42.098;24.876;2023-03-31T11:46:34;99194.16;;;22.79;31.16
44839;BME280;30576;42.098;24.876;2023-03-31T11:49:02;99190.44;;;23.17;31.56
44839;BME280;30576;42.098;24.876;2023-03-31T11:51:30;99177.75;;;23.54;28.80
44839;BME280;30576;42.098;24.876;2023-03-31T11:53:58;99180.25;;;23.33;29.15
44839;BME280;30576;42.098;24.876;2023-03-31T11:56:29;99172.56;;;22.92;29.68
44839;BME280;30576;42.098;24.876;2023-03-31T11:58:56;99159.56;;;22.61;29.12
44839;BME280;30576;42.098;24.876;2023-03-31T12:03:53;99166.84;;;22.72;29.65
44839;BME280;30576;42.098;24.876;2023-03-31T12:06:21;99169.13;;;22.65;30.23
44839;BME280;30576;42.098;24.876;2023-03-31T12:16:23;99149.56;;;22.87;29.03
44839;BME280;30576;42.098;24.876;2023-03-31T12:18:58;99149.69;;;22.86;29.01
44839;BME280;30576;42.098;24.876;2023-03-31T12:21:26;99150.59;;;22.74;28.84
44839;BME280;30576;42.098;24.876;2023-03-31T12:23:53;99135.50;;;22.60;29.77
44839;BME280;30576;42.098;24.876;2023-03-31T12:28:55;99129.44;;;22.93;29.25
44839;BME280;30576;42.098;24.876;2023-03-31T12:31:22;99139.34;;;23.17;28.38
44839;BME280;30576;42.098;24.876;2023-03-31T12:33:52;99136.31;;;22.97;29.17
44839;BME280;30576;42.098;24.876;2023-03-31T12:38:49;99127.44;;;22.84;28.62
44839;BME280;30576;42.098;24.876;2023-03-31T12:41:23;99128.41;;;22.59;28.71
44839;BME280;30576;42.098;24.876;2023-03-31T12:46:35;99127.31;;;22.61;29.22
44839;BME280;30576;42.098;24.876;2023-03-31T12:54:18;99115.81;;;22.59;28.25
44839;BME280;30576;42.098;24.876;2023-03-31T12:59:30;99105.38;;;23.27;29.30
44839;BME280;30576;42.098;24.876;2023-03-31T13:04:33;99101.59;;;22.70;27.42
44839;BME280;30576;42.098;24.876;2023-03-31T13:07:01;99089.06;;;22.58;27.25
44839;BME280;30576;42.098;24.876;2023-03-31T13:11:55;99083.28;;;22.51;27.22
44839;BME280;30576;42.098;24.876;2023-03-31T13:14:24;99079.72;;;22.99;27.33
44839;BME280;30576;42.098;24.876;2023-03-31T13:16:53;99079.22;;;23.29;27.19
44839;BME280;30576;42.098;24.876;2023-03-31T13:19:35;99059.75;;;23.26;28.35
44839;BME280;30576;42.098;24.876;2023-03-31T13:22:01;99062.00;;;23.07;27.54
44839;BME280;30576;42.098;24.876;2023-03-31T13:24:28;99061.56;;;23.14;26.94
44839;BME280;30576;42.098;24.876;2023-03-31T13:26:54;99054.97;;;23.18;27.07
44839;BME280;30576;42.098;24.876;2023-03-31T13:29:25;99047.81;;;23.05;27.37
44839;BME280;30576;42.098;24.876;2023-03-31T13:55:15;99034.34;;;22.59;27.60
44839;BME280;30576;42.098;24.876;2023-03-31T14:05:54;99015.00;;;22.53;27.53
44839;BME280;30576;42.098;24.876;2023-03-31T14:10:53;99010.16;;;22.59;28.05
44839;BME280;30576;42.098;24.876;2023-03-31T14:13:19;99005.41;;;22.62;27.81
44839;BME280;30576;42.098;24.876;2023-03-31T14:15:52;99006.47;;;22.60;27.40
44839;BME280;30576;42.098;24.876;2023-03-31T14:18:37;99004.97;;;22.80;27.73
44839;BME280;30576;42.098;24.876;2023-03-31T14:38:50;98987.94;;;22.32;27.71
44839;BME280;30576;42.098;24.876;2023-03-31T14:41:16;98986.25;;;22.18;28.22
44839;BME280;30576;42.098;24.876;2023-03-31T14:43:46;98988.75;;;22.09;27.95
44839;BME280;30576;42.098;24.876;2023-03-31T14:46:12;98986.94;;;22.33;29.05
44839;BME280;30576;42.098;24.876;2023-03-31T14:48:44;98982.59;;;21.95;28.60
44839;BME280;30576;42.098;24.876;2023-03-31T14:51:13;98985.66;;;22.02;28.88
44839;BME280;30576;42.098;24.876;2023-03-31T14:53:38;98989.63;;;22.09;29.10
44839;BME280;30576;42.098;24.876;2023-03-31T14:56:08;98993.16;;;21.73;28.18
44839;BME280;30576;42.098;24.876;2023-03-31T14:58:36;98984.88;;;21.76;28.50
44839;BME280;30576;42.098;24.876;2023-03-31T15:01:03;98985.69;;;21.52;28.42
44839;BME280;30576;42.098;24.876;2023-03-31T15:03:31;98986.53;;;21.53;28.30
44839;BME280;30576;42.098;24.876;2023-03-31T15:05:57;98991.53;;;21.83;29.02
44839;BME280;30576;42.098;24.876;2023-03-31T15:08:23;98987.31;;;21.92;28.10
44839;BME280;30576;42.098;24.876;2023-03-31T15:10:50;98989.50;;;22.11;28.63
44839;BME280;30576;42.098;24.876;2023-03-31T15:13:21;98983.53;;;22.31;27.74
44839;BME280;30576;42.098;24.876;2023-03-31T15:15:49;98978.03;;;22.33;27.84
44839;BME280;30576;42.098;24.876;2023-03-31T15:18:15;98983.16;;;22.12;28.18
44839;BME280;30576;42.098;24.876;2023-03-31T15:20:41;98985.28;;;21.95;28.52
44839;BME280;30576;42.098;24.876;2023-03-31T15:23:21;98981.91;;;21.68;28.71
44839;BME280;30576;42.098;24.876;2023-03-31T15:25:48;98985.59;;;21.54;29.53
44839;BME280;30576;42.098;24.876;2023-03-31T15:28:16;98985.94;;;21.73;29.41
44839;BME280;30576;42.098;24.876;2023-03-31T15:30:42;98986.06;;;21.85;29.45
44839;BME280;30576;42.098;24.876;2023-03-31T15:33:14;98983.88;;;21.90;29.48
44839;BME280;30576;42.098;24.876;2023-03-31T15:35:42;98992.28;;;21.85;29.05
44839;BME280;30576;42.098;24.876;2023-03-31T15:38:08;98984.59;;;21.68;29.79
44839;BME280;30576;42.098;24.876;2023-03-31T15:40:38;98991.09;;;21.76;29.55
44839;BME280;30576;42.098;24.876;2023-03-31T15:45:45;98991.03;;;21.65;29.71
44839;BME280;30576;42.098;24.876;2023-03-31T15:48:21;98981.91;;;21.55;29.90
44839;BME280;30576;42.098;24.876;2023-03-31T15:50:47;98979.34;;;21.40;29.31
44839;BME280;30576;42.098;24.876;2023-03-31T15:53:27;98978.56;;;21.64;29.52
44839;BME280;30576;42.098;24.876;2023-03-31T15:55:54;98972.41;;;21.88;29.58
44839;BME280;30576;42.098;24.876;2023-03-31T15:58:22;98971.63;;;21.61;29.15